Time;durP1;ratioP1;P1;durP2;ratioP2;P2;SDS_P1;SDS_P2;PMS_P1;PMS_P2;Temp;Humidity;BMP_temperature;BMP_pressure;BME280_temperature;BME280_humidity;BME280_pressure;Samples;Min_cycle;Max_cycle;Signal;HPM_P1;HPM_P2
2023/10/29 00:01:59;;;;;;;0.77;0.43;;;;;;;10.85;80.26;94320.63;4296883;33;20252;-65
2023/10/29 00:04:41;;;;;;;0.33;0.33;;;;;;;10.81;80.80;94317.03;4313183;33;20174;-64
2023/10/29 00:07:18;;;;;;;0.67;0.67;;;;;;;10.56;82.22;94323.25;4314107;33;20178;-64
2023/10/29 00:09:45;;;;;;;0.53;0.53;;;;;;;10.51;82.39;94321.53;4297481;33;20190;-64
2023/10/29 00:12:11;;;;;;;0.47;0.47;;;;;;;10.62;82.03;94324.59;4315251;33;20208;-64
2023/10/29 00:14:37;;;;;;;0.17;0.17;;;;;;;10.74;81.83;94319.44;4311891;33;20186;-64
2023/10/29 00:17:03;;;;;;;0.47;0.47;;;;;;;10.89;81.03;94310.91;4300063;33;20186;-64
2023/10/29 00:19:29;;;;;;;0.30;0.30;;;;;;;10.59;82.12;94318.09;4290187;33;20193;-64
2023/10/29 00:21:55;;;;;;;0.10;0.10;;;;;;;10.69;81.99;94311.62;4312732;32;20204;-64
2023/10/29 00:24:22;;;;;;;0.00;0.00;;;;;;;10.78;81.41;94304.44;4298474;33;20193;-64
2023/10/29 00:26:49;;;;;;;0.00;0.00;;;;;;;10.71;81.70;94309.44;4317244;33;20181;-64
2023/10/29 00:29:14;;;;;;;0.07;0.07;;;;;;;10.65;81.92;94314.16;4293108;33;20212;-63
2023/10/29 00:31:40;;;;;;;0.30;0.30;;;;;;;10.74;81.77;94321.31;4273631;33;20179;-63
2023/10/29 00:34:08;;;;;;;2.60;0.40;;;;;;;10.52;82.17;94322.31;4296991;33;20171;-63
2023/10/29 00:36:34;;;;;;;0.10;0.10;;;;;;;10.61;82.26;94325.69;4309247;33;20250;-63
2023/10/29 00:39:00;;;;;;;0.73;0.73;;;;;;;10.82;81.40;94326.56;4298545;33;20242;-63
2023/10/29 00:41:31;;;;;;;0.20;0.20;;;;;;;10.70;81.56;94334.41;4308798;33;20201;-64
2023/10/29 00:43:58;;;;;;;0.40;0.40;;;;;;;10.73;81.56;94323.19;4285029;33;20217;-63
2023/10/29 00:46:25;;;;;;;0.30;0.23;;;;;;;10.81;81.32;94330.31;4301562;33;20194;-63
2023/10/29 00:48:52;;;;;;;0.40;0.40;;;;;;;10.81;81.02;94319.69;4304780;33;20186;-63
2023/10/29 00:51:18;;;;;;;0.13;0.13;;;;;;;10.82;81.22;94323.91;4328523;33;20217;-63
2023/10/29 00:53:47;;;;;;;0.20;0.20;;;;;;;10.69;81.37;94316.94;4295443;33;20187;-63
2023/10/29 00:56:15;;;;;;;0.10;0.10;;;;;;;10.78;81.23;94320.34;4288972;33;20183;-63
2023/10/29 00:58:42;;;;;;;0.17;0.17;;;;;;;10.70;81.48;94334.41;4294972;33;20194;-63
2023/10/29 01:01:08;;;;;;;1.33;0.40;;;;;;;10.93;80.63;94327.00;4311702;33;20178;-63
2023/10/29 01:03:46;;;;;;;0.20;0.20;;;;;;;10.74;81.64;94318.66;4303204;33;20185;-63
2023/10/29 01:06:17;;;;;;;0.10;0.10;;;;;;;10.78;81.52;94330.19;4303254;33;20212;-63
2023/10/29 01:08:43;;;;;;;0.13;0.13;;;;;;;10.83;81.24;94330.75;4285414;33;20178;-63
2023/10/29 01:11:10;;;;;;;0.30;0.30;;;;;;;10.92;80.80;94328.88;4274073;33;20171;-63
2023/10/29 01:13:37;;;;;;;0.10;0.10;;;;;;;10.94;80.82;94318.72;4257127;33;20238;-63
2023/10/29 01:16:04;;;;;;;0.23;0.23;;;;;;;10.64;81.18;94325.06;4286976;33;20190;-63
2023/10/29 01:18:32;;;;;;;0.10;0.10;;;;;;;10.67;81.57;94321.78;4298843;33;20186;-63
2023/10/29 01:20:58;;;;;;;0.23;0.23;;;;;;;10.68;81.63;94320.69;4289229;33;20208;-63
2023/10/29 01:23:25;;;;;;;0.20;0.20;;;;;;;10.80;81.25;94320.81;4313005;33;20213;-63
2023/10/29 01:25:50;;;;;;;0.20;0.20;;;;;;;10.92;80.52;94314.81;4279697;33;20259;-63
2023/10/29 01:28:16;;;;;;;0.33;0.33;;;;;;;10.49;81.97;94304.38;4288226;33;20197;-63
2023/10/29 01:30:43;;;;;;;0.10;0.10;;;;;;;10.62;81.61;94327.25;4313661;33;20209;-63
2023/10/29 01:33:10;;;;;;;0.47;0.47;;;;;;;10.48;82.09;94310.78;4271318;33;20194;-63
2023/10/29 01:35:38;;;;;;;0.23;0.23;;;;;;;10.55;81.93;94300.47;4298102;33;20220;-63
2023/10/29 01:38:05;;;;;;;0.20;0.20;;;;;;;10.51;82.31;94297.66;4301012;33;20236;-64
2023/10/29 01:40:31;;;;;;;0.20;0.20;;;;;;;10.53;81.89;94294.69;4289026;33;20197;-63
2023/10/29 01:42:58;;;;;;;0.37;0.20;;;;;;;10.70;81.37;94291.19;4277178;33;20188;-63
2023/10/29 01:45:24;;;;;;;0.30;0.30;;;;;;;10.63;81.75;94287.16;4289070;33;20190;-63
2023/10/29 01:47:50;;;;;;;0.07;0.07;;;;;;;10.54;81.65;94288.31;4292055;33;20272;-63
2023/10/29 01:50:15;;;;;;;0.77;0.77;;;;;;;10.70;81.03;94276.06;4305305;33;20265;-63
2023/10/29 01:52:42;;;;;;;0.00;0.00;;;;;;;10.59;81.11;94280.19;4293541;33;20201;-63
2023/10/29 01:55:08;;;;;;;0.20;0.20;;;;;;;10.62;81.38;94284.81;4299532;33;20198;-63
2023/10/29 01:57:38;;;;;;;1.60;0.50;;;;;;;10.64;81.22;94285.28;4282783;33;20190;-66
2023/10/29 02:00:06;;;;;;;0.47;0.43;;;;;;;10.53;81.32;94289.41;4260708;33;20195;-63
2023/10/29 02:02:32;;;;;;;0.83;0.43;;;;;;;10.56;81.42;94288.78;4305110;33;20190;-63
2023/10/29 02:04:59;;;;;;;0.30;0.30;;;;;;;10.45;81.69;94295.50;4308876;33;20190;-63
2023/10/29 02:07:25;;;;;;;1.03;0.53;;;;;;;10.42;81.76;94290.81;4309582;33;20258;-63
2023/10/29 02:09:52;;;;;;;0.10;0.10;;;;;;;10.27;82.11;94295.56;4292579;33;20233;-63
2023/10/29 02:12:17;;;;;;;0.17;0.17;;;;;;;10.45;82.12;94295.50;4285363;33;20194;-63
2023/10/29 02:14:44;;;;;;;0.30;0.30;;;;;;;10.26;82.11;94290.56;4280211;33;20193;-63
2023/10/29 02:17:14;;;;;;;0.00;0.00;;;;;;;10.32;82.01;94291.97;4295031;33;20194;-66
2023/10/29 02:19:41;;;;;;;0.30;0.30;;;;;;;10.20;82.21;94289.94;4300858;33;20192;-66
2023/10/29 02:22:09;;;;;;;0.10;0.10;;;;;;;10.05;83.19;94285.13;4314685;33;20179;-66
2023/10/29 02:24:36;;;;;;;1.80;0.50;;;;;;;10.26;82.45;94278.09;4306659;33;20192;-63
2023/10/29 02:27:03;;;;;;;0.07;0.07;;;;;;;10.38;82.01;94274.81;4299063;33;20177;-63
2023/10/29 02:29:29;;;;;;;0.10;0.10;;;;;;;10.47;81.38;94288.00;4295559;33;20174;-63
2023/10/29 02:31:55;;;;;;;0.10;0.10;;;;;;;10.48;81.17;94274.44;4282665;33;20194;-64
2023/10/29 02:34:23;;;;;;;0.20;0.20;;;;;;;10.35;81.50;94290.56;4295638;33;20186;-63
2023/10/29 02:36:51;;;;;;;0.67;0.60;;;;;;;10.31;81.52;94291.19;4315647;33;20277;-63
2023/10/29 02:39:17;;;;;;;0.03;0.03;;;;;;;10.20;82.05;94279.34;4326120;33;20303;-64
2023/10/29 02:41:42;;;;;;;0.27;0.27;;;;;;;10.25;81.72;94268.59;4315316;33;20203;-63
2023/10/29 02:44:09;;;;;;;0.27;0.27;;;;;;;10.27;82.02;94269.06;4302853;33;20190;-63
2023/10/29 02:46:40;;;;;;;0.30;0.30;;;;;;;10.42;81.65;94266.97;4297041;33;20190;-63
2023/10/29 02:49:07;;;;;;;0.13;0.13;;;;;;;10.48;81.10;94279.75;4303701;32;20226;-63
2023/10/29 02:51:32;;;;;;;0.20;0.20;;;;;;;10.35;81.06;94279.94;4314147;33;20262;-63
2023/10/29 02:53:57;;;;;;;0.23;0.23;;;;;;;10.30;81.14;94273.72;4267782;33;20190;-63
2023/10/29 02:56:24;;;;;;;0.13;0.13;;;;;;;10.41;80.89;94268.06;4300589;33;20178;-63
2023/10/29 02:58:50;;;;;;;0.40;0.40;;;;;;;10.29;81.18;94271.38;4314766;33;20245;-63
2023/10/29 03:01:20;;;;;;;1.70;0.43;;;;;;;10.35;80.81;94264.81;4315326;33;20429;-63
2023/10/29 03:03:50;;;;;;;0.13;0.13;;;;;;;10.25;80.54;94257.97;4290721;33;20245;-63
2023/10/29 03:06:16;;;;;;;0.80;0.00;;;;;;;10.23;81.01;94262.81;4293646;33;20194;-64
2023/10/29 03:08:42;;;;;;;0.40;0.40;;;;;;;10.08;81.26;94263.31;4294322;33;20208;-63
2023/10/29 03:11:11;;;;;;;0.10;0.10;;;;;;;10.09;81.63;94258.78;4292736;33;20179;-63
2023/10/29 03:13:37;;;;;;;0.00;0.00;;;;;;;10.17;81.19;94264.06;4275230;33;20220;-63
2023/10/29 03:16:03;;;;;;;0.20;0.20;;;;;;;10.33;80.80;94259.84;4289490;33;20178;-63
2023/10/29 03:18:29;;;;;;;0.00;0.00;;;;;;;10.47;80.23;94258.84;4281843;33;20226;-63
2023/10/29 03:20:58;;;;;;;0.20;0.20;;;;;;;10.51;79.55;94251.81;4299387;33;20205;-63
2023/10/29 03:23:25;;;;;;;0.37;0.27;;;;;;;10.59;79.12;94253.66;4275604;33;20183;-63
2023/10/29 03:25:53;;;;;;;0.07;0.07;;;;;;;10.59;78.88;94256.31;4278640;33;20208;-63
2023/10/29 03:28:20;;;;;;;0.17;0.17;;;;;;;10.46;79.08;94249.34;4290693;33;20229;-64
2023/10/29 03:30:45;;;;;;;0.27;0.27;;;;;;;10.46;78.99;94249.34;4300252;33;20262;-63
2023/10/29 03:33:12;;;;;;;0.00;0.00;;;;;;;10.33;79.55;94253.75;4273943;33;20193;-63
2023/10/29 03:35:39;;;;;;;0.00;0.00;;;;;;;10.16;80.06;94254.56;4291660;33;20177;-63
2023/10/29 03:38:05;;;;;;;0.20;0.20;;;;;;;10.30;79.59;94252.53;4283489;33;20174;-63
2023/10/29 03:40:33;;;;;;;0.17;0.17;;;;;;;10.26;79.78;94243.62;4284243;33;20171;-64
2023/10/29 03:42:58;;;;;;;0.00;0.00;;;;;;;10.38;79.30;94250.94;4286037;33;20182;-63
2023/10/29 03:45:27;;;;;;;0.23;0.23;;;;;;;10.28;79.59;94249.41;4275784;33;20209;-63
2023/10/29 03:47:54;;;;;;;0.10;0.10;;;;;;;10.44;79.05;94252.31;4261657;33;20218;-63
2023/10/29 03:50:21;;;;;;;0.27;0.27;;;;;;;10.42;78.88;94259.00;4299745;33;20182;-64
2023/10/29 03:52:47;;;;;;;0.20;0.20;;;;;;;10.39;79.11;94255.16;4284497;33;20351;-63
2023/10/29 03:55:14;;;;;;;0.00;0.00;;;;;;;10.29;79.19;94250.19;4279443;33;20186;-63
2023/10/29 03:57:40;;;;;;;0.10;0.10;;;;;;;10.19;79.82;94255.81;4282891;33;20198;-63
2023/10/29 04:00:08;;;;;;;0.47;0.47;;;;;;;10.18;79.46;94246.31;4289237;33;20187;-63
2023/10/29 04:02:34;;;;;;;0.00;0.00;;;;;;;10.30;79.01;94241.91;4271031;33;20214;-63
2023/10/29 04:05:04;;;;;;;0.10;0.10;;;;;;;10.39;78.90;94233.16;4281505;33;20194;-64
2023/10/29 04:07:29;;;;;;;0.03;0.03;;;;;;;10.20;79.46;94221.03;4306678;33;20257;-63
2023/10/29 04:09:55;;;;;;;0.00;0.00;;;;;;;10.20;79.67;94226.34;4312678;33;20193;-63
2023/10/29 04:12:23;;;;;;;0.17;0.17;;;;;;;10.28;78.92;94228.19;4315596;33;20186;-63
2023/10/29 04:14:49;;;;;;;0.10;0.10;;;;;;;10.03;79.35;94218.44;4308145;33;20307;-63
2023/10/29 04:17:15;;;;;;;0.27;0.27;;;;;;;10.01;79.64;94217.97;4322302;33;20194;-63
2023/10/29 04:19:43;;;;;;;0.10;0.10;;;;;;;10.10;79.51;94218.72;4313718;33;20190;-63
2023/10/29 04:22:09;;;;;;;0.10;0.10;;;;;;;10.30;78.96;94220.72;4304928;33;20194;-63
2023/10/29 04:24:36;;;;;;;0.33;0.33;;;;;;;10.13;79.01;94210.16;4323142;33;20199;-63
2023/10/29 04:27:01;;;;;;;0.10;0.10;;;;;;;10.20;78.87;94215.75;4284192;33;20194;-63
2023/10/29 04:29:28;;;;;;;0.00;0.00;;;;;;;10.22;78.58;94207.47;4324801;33;20186;-63
2023/10/29 04:31:54;;;;;;;0.20;0.20;;;;;;;10.33;78.20;94206.03;4318736;33;20186;-63
2023/10/29 04:34:19;;;;;;;0.20;0.20;;;;;;;10.30;78.37;94204.03;4298614;33;20280;-63
2023/10/29 04:36:51;;;;;;;0.10;0.10;;;;;;;10.25;77.93;94210.28;4314312;33;20221;-63
2023/10/29 04:39:19;;;;;;;0.10;0.10;;;;;;;10.39;77.69;94206.66;4310310;33;20331;-63
2023/10/29 04:41:48;;;;;;;0.30;0.30;;;;;;;10.40;77.27;94202.88;4298189;33;20201;-64
2023/10/29 04:44:14;;;;;;;0.10;0.10;;;;;;;10.39;76.95;94204.00;4280043;33;20212;-63
2023/10/29 04:46:41;;;;;;;0.00;0.00;;;;;;;10.46;76.83;94206.91;4294847;33;20178;-63
2023/10/29 04:49:06;;;;;;;0.00;0.00;;;;;;;10.51;76.35;94206.75;4283265;33;20226;-63
2023/10/29 04:51:33;;;;;;;0.20;0.20;;;;;;;10.47;76.10;94198.63;4305177;33;20228;-64
2023/10/29 04:54:00;;;;;;;0.40;0.23;;;;;;;10.47;75.73;94205.81;4287483;33;20182;-63
2023/10/29 04:56:50;;;;;;;0.40;0.40;;;;;;;10.51;75.66;94204.88;4312561;33;20221;-63
2023/10/29 04:59:16;;;;;;;0.10;0.10;;;;;;;10.47;75.61;94203.16;4255118;33;20191;-63
2023/10/29 05:01:42;;;;;;;0.30;0.27;;;;;;;10.40;75.75;94205.53;4295275;33;20220;-64
2023/10/29 05:04:08;;;;;;;0.20;0.20;;;;;;;10.31;76.08;94201.06;4288330;33;20185;-63
2023/10/29 05:06:37;;;;;;;0.10;0.10;;;;;;;10.12;76.25;94199.88;4290436;33;20213;-63
2023/10/29 05:09:02;;;;;;;0.30;0.30;;;;;;;10.28;75.75;94196.41;4313767;33;20182;-63
2023/10/29 05:11:31;;;;;;;0.43;0.40;;;;;;;10.47;75.30;94184.59;4293995;33;20273;-63
2023/10/29 05:13:59;;;;;;;0.00;0.00;;;;;;;10.57;74.93;94186.91;4296915;33;20194;-63
2023/10/29 05:16:32;;;;;;;0.30;0.30;;;;;;;10.46;75.01;94185.69;4284313;33;20190;-64
2023/10/29 05:18:59;;;;;;;0.20;0.20;;;;;;;10.36;74.62;94175.47;4288103;33;20253;-63
2023/10/29 05:21:26;;;;;;;0.20;0.20;;;;;;;10.49;74.37;94182.41;4285554;33;20205;-64
2023/10/29 05:23:56;;;;;;;0.00;0.00;;;;;;;10.45;74.48;94176.97;4294699;33;20202;-63
2023/10/29 05:26:22;;;;;;;0.03;0.03;;;;;;;10.51;74.26;94177.56;4279192;33;20237;-63
2023/10/29 05:28:49;;;;;;;0.50;0.50;;;;;;;10.58;73.91;94169.91;4269174;33;20270;-63
2023/10/29 05:31:16;;;;;;;0.07;0.07;;;;;;;10.61;73.75;94175.31;4301481;33;20216;-63
2023/10/29 05:33:43;;;;;;;0.53;0.30;;;;;;;10.64;73.61;94171.25;4308095;33;20197;-63
2023/10/29 05:36:11;;;;;;;0.10;0.10;;;;;;;10.42;74.34;94164.34;4317993;33;20195;-63
2023/10/29 05:38:37;;;;;;;0.37;0.37;;;;;;;10.36;74.43;94162.22;4303925;33;20191;-63
2023/10/29 05:41:02;;;;;;;0.30;0.30;;;;;;;10.47;74.31;94171.34;4293980;33;20201;-63
2023/10/29 05:43:29;;;;;;;0.20;0.20;;;;;;;10.46;74.10;94175.88;4296983;33;20286;-63
2023/10/29 05:45:56;;;;;;;0.30;0.30;;;;;;;10.35;74.49;94173.91;4315849;33;20213;-63
2023/10/29 05:48:23;;;;;;;0.10;0.10;;;;;;;10.36;74.31;94189.50;4295510;33;20204;-64
2023/10/29 05:50:49;;;;;;;0.13;0.13;;;;;;;10.57;73.99;94194.84;4304507;33;20182;-63
2023/10/29 05:53:16;;;;;;;0.63;0.57;;;;;;;10.63;73.52;94188.25;4291020;33;20248;-63
2023/10/29 05:55:44;;;;;;;0.10;0.10;;;;;;;10.68;73.15;94190.72;4299213;33;20208;-63
2023/10/29 05:58:09;;;;;;;0.00;0.00;;;;;;;10.55;73.48;94189.09;4305517;33;20186;-63
2023/10/29 06:00:36;;;;;;;0.00;0.00;;;;;;;10.56;73.72;94195.97;4298411;33;20304;-64
2023/10/29 06:03:03;;;;;;;0.00;0.00;;;;;;;10.55;73.74;94199.69;4288901;33;20191;-64
2023/10/29 06:05:29;;;;;;;0.00;0.00;;;;;;;10.46;73.55;94206.91;4282805;33;20178;-64
2023/10/29 06:07:54;;;;;;;0.00;0.00;;;;;;;10.64;73.18;94197.75;4301049;33;20186;-64
2023/10/29 06:10:21;;;;;;;0.20;0.20;;;;;;;10.66;73.32;94195.56;4306105;33;20199;-64
2023/10/29 06:12:47;;;;;;;0.57;0.57;;;;;;;10.50;73.48;94202.53;4296566;33;20273;-64
2023/10/29 06:15:14;;;;;;;0.20;0.20;;;;;;;10.31;74.06;94206.38;4310404;33;20228;-64
2023/10/29 06:17:41;;;;;;;0.17;0.17;;;;;;;10.52;73.66;94216.25;4305336;33;20178;-64
2023/10/29 06:20:16;;;;;;;0.07;0.07;;;;;;;10.67;73.21;94205.09;4286935;33;20328;-64
2023/10/29 06:22:44;;;;;;;0.00;0.00;;;;;;;10.52;73.30;94203.00;4279703;33;20185;-64
2023/10/29 06:25:12;;;;;;;0.00;0.00;;;;;;;10.41;73.54;94197.25;4291840;33;20202;-64
2023/10/29 06:27:38;;;;;;;0.17;0.17;;;;;;;10.46;73.61;94191.78;4311683;33;20186;-63
2023/10/29 06:30:16;;;;;;;0.27;0.27;;;;;;;10.53;72.84;94197.38;4304911;33;20173;-64
2023/10/29 06:32:43;;;;;;;0.00;0.00;;;;;;;10.66;72.82;94190.28;4300947;33;20190;-64
2023/10/29 06:35:12;;;;;;;0.20;0.20;;;;;;;10.66;72.16;94192.91;4316000;33;20225;-63
2023/10/29 06:37:39;;;;;;;1.03;0.47;;;;;;;10.57;72.68;94194.84;4283334;33;20213;-64
2023/10/29 06:40:06;;;;;;;0.20;0.20;;;;;;;10.60;72.49;94196.84;4314601;33;20261;-64
2023/10/29 06:42:33;;;;;;;0.00;0.00;;;;;;;10.70;72.22;94188.53;4313887;33;20217;-64
2023/10/29 06:45:00;;;;;;;0.10;0.10;;;;;;;10.81;71.83;94189.69;4291264;33;20311;-64
2023/10/29 06:47:25;;;;;;;0.27;0.27;;;;;;;10.99;70.89;94199.13;4316214;33;20180;-64
2023/10/29 06:49:50;;;;;;;0.33;0.33;;;;;;;10.99;70.90;94199.13;4315096;33;20196;-64
2023/10/29 06:52:18;;;;;;;0.20;0.20;;;;;;;10.96;71.00;94205.06;4306313;33;20253;-64
2023/10/29 06:54:44;;;;;;;1.43;0.63;;;;;;;10.98;70.90;94210.06;4271581;33;20209;-64
2023/10/29 06:57:11;;;;;;;0.17;0.17;;;;;;;11.05;70.40;94202.34;4289368;33;20183;-64
2023/10/29 06:59:39;;;;;;;1.20;0.57;;;;;;;11.15;70.10;94209.16;4292683;33;20216;-64
2023/10/29 07:02:06;;;;;;;0.00;0.00;;;;;;;11.10;70.39;94204.81;4316098;33;20204;-63
2023/10/29 07:04:33;;;;;;;0.20;0.20;;;;;;;11.07;70.60;94207.31;4291596;33;20185;-64
2023/10/29 07:06:59;;;;;;;0.10;0.10;;;;;;;11.20;70.20;94204.44;4276639;33;20215;-64
2023/10/29 07:09:28;;;;;;;0.10;0.10;;;;;;;11.25;70.54;94203.44;4278523;33;20260;-64
2023/10/29 07:11:55;;;;;;;1.17;0.30;;;;;;;11.26;70.29;94212.97;4293717;33;20186;-64
2023/10/29 07:14:22;;;;;;;0.10;0.10;;;;;;;11.34;70.08;94209.47;4289033;33;20257;-64
2023/10/29 07:16:49;;;;;;;4.27;0.60;;;;;;;11.40;70.00;94208.19;4307547;33;20269;-64
2023/10/29 07:19:16;;;;;;;0.07;0.07;;;;;;;11.30;70.21;94197.94;4313635;33;20185;-64
2023/10/29 07:21:43;;;;;;;0.10;0.10;;;;;;;11.43;71.27;94196.88;4289324;33;20194;-64
2023/10/29 07:24:09;;;;;;;0.27;0.27;;;;;;;11.50;70.14;94194.47;4283505;33;20190;-64
2023/10/29 07:26:36;;;;;;;0.10;0.10;;;;;;;11.62;70.54;94194.53;4297978;33;20261;-64
2023/10/29 07:29:03;;;;;;;0.30;0.30;;;;;;;11.70;70.49;94206.16;4295314;33;20196;-64
2023/10/29 07:31:32;;;;;;;0.30;0.30;;;;;;;11.69;71.75;94205.41;4311236;33;20226;-64
2023/10/29 07:34:00;;;;;;;0.37;0.37;;;;;;;11.74;70.94;94211.62;4319446;33;20182;-64
2023/10/29 07:36:29;;;;;;;0.17;0.17;;;;;;;11.87;70.49;94214.00;4324714;33;20193;-64
2023/10/29 07:38:56;;;;;;;0.20;0.20;;;;;;;11.93;70.94;94214.56;4298478;33;20186;-64
2023/10/29 07:41:24;;;;;;;0.30;0.30;;;;;;;11.95;70.81;94204.38;4297183;33;20220;-64
2023/10/29 07:43:51;;;;;;;0.33;0.33;;;;;;;12.08;70.35;94216.59;4302166;33;20321;-64
2023/10/29 07:46:17;;;;;;;0.30;0.30;;;;;;;12.09;68.98;94222.69;4292827;33;20277;-64
2023/10/29 07:48:43;;;;;;;0.97;0.70;;;;;;;12.16;69.28;94230.91;4314004;33;20190;-64
2023/10/29 07:51:10;;;;;;;0.30;0.30;;;;;;;12.22;69.75;94234.91;4314827;33;20204;-64
2023/10/29 07:53:37;;;;;;;0.67;0.57;;;;;;;12.25;69.37;94229.72;4325472;33;20197;-64
2023/10/29 07:56:10;;;;;;;0.23;0.23;;;;;;;12.24;70.17;94233.47;4270135;33;20274;-64
2023/10/29 07:58:38;;;;;;;0.60;0.60;;;;;;;12.23;69.86;94245.22;4315163;33;20196;-64
2023/10/29 08:01:17;;;;;;;0.10;0.10;;;;;;;12.28;70.47;94238.91;4292461;33;20194;-63
2023/10/29 08:03:46;;;;;;;0.40;0.40;;;;;;;12.26;71.20;94243.78;4299329;33;20277;-65
2023/10/29 08:06:13;;;;;;;0.10;0.10;;;;;;;12.26;70.52;94241.88;4316388;33;20257;-63
2023/10/29 08:08:41;;;;;;;0.10;0.10;;;;;;;12.30;71.58;94228.72;4283361;33;20186;-63
2023/10/29 08:11:18;;;;;;;1.40;0.53;;;;;;;12.27;72.41;94240.78;4288107;33;20304;-63
2023/10/29 08:13:44;;;;;;;0.23;0.23;;;;;;;12.27;73.01;94243.44;4278160;33;20185;-63
2023/10/29 08:16:10;;;;;;;0.50;0.50;;;;;;;12.30;73.79;94244.66;4267319;33;20190;-63
2023/10/29 08:18:36;;;;;;;0.00;0.00;;;;;;;12.31;73.53;94241.66;4281124;33;20224;-63
2023/10/29 08:21:02;;;;;;;0.20;0.20;;;;;;;12.32;74.09;94247.78;4274419;33;20194;-63
2023/10/29 08:23:30;;;;;;;0.57;0.40;;;;;;;12.35;74.04;94245.22;4299314;33;20192;-63
2023/10/29 08:25:58;;;;;;;0.30;0.30;;;;;;;12.43;70.95;94237.50;4311033;33;20213;-63
2023/10/29 08:28:27;;;;;;;0.23;0.23;;;;;;;12.51;71.63;94241.91;4304850;33;20194;-63
2023/10/29 08:30:55;;;;;;;0.20;0.20;;;;;;;12.53;72.46;94239.69;4292541;33;20185;-63
2023/10/29 08:33:20;;;;;;;0.37;0.37;;;;;;;12.50;73.36;94232.38;4313726;33;20200;-63
2023/10/29 08:35:48;;;;;;;0.10;0.10;;;;;;;12.49;72.49;94239.59;4292433;33;20269;-65
2023/10/29 08:38:16;;;;;;;0.30;0.30;;;;;;;12.50;73.39;94235.03;4313819;33;20190;-65
2023/10/29 08:40:43;;;;;;;0.93;0.63;;;;;;;12.59;72.37;94246.37;4302275;33;20200;-63
2023/10/29 08:43:08;;;;;;;0.60;0.60;;;;;;;12.56;73.60;94247.81;4260884;33;20201;-63
2023/10/29 08:45:35;;;;;;;0.43;0.43;;;;;;;12.56;73.24;94249.69;4287072;33;20182;-63
2023/10/29 08:48:12;;;;;;;0.47;0.47;;;;;;;12.80;69.57;94263.00;4288643;33;20186;-63
2023/10/29 08:50:39;;;;;;;0.10;0.10;;;;;;;13.11;69.11;94265.06;4292911;33;20201;-63
2023/10/29 08:53:07;;;;;;;1.50;0.63;;;;;;;13.19;67.64;94274.09;4273112;33;20262;-63
2023/10/29 08:55:37;;;;;;;0.53;0.53;;;;;;;13.24;67.87;94271.22;4274282;33;20281;-63
2023/10/29 08:58:03;;;;;;;0.27;0.27;;;;;;;13.22;68.66;94270.78;4325829;33;20256;-63
2023/10/29 09:00:29;;;;;;;1.30;0.40;;;;;;;13.33;67.16;94269.19;4314506;33;20182;-63
2023/10/29 09:02:55;;;;;;;0.40;0.40;;;;;;;13.39;66.99;94265.19;4314292;33;20244;-63
2023/10/29 09:05:22;;;;;;;0.20;0.20;;;;;;;13.46;66.67;94264.63;4314852;33;20204;-63
2023/10/29 09:07:48;;;;;;;0.93;0.87;;;;;;;13.47;66.22;94264.28;4309046;33;20289;-63
2023/10/29 09:10:15;;;;;;;0.20;0.20;;;;;;;13.56;65.62;94262.25;4307289;33;20178;-63
2023/10/29 09:12:42;;;;;;;0.17;0.17;;;;;;;13.66;65.01;94261.78;4289000;33;20194;-63
2023/10/29 09:15:12;;;;;;;0.90;0.80;;;;;;;13.74;64.91;94268.84;4303269;33;20263;-63
2023/10/29 09:17:39;;;;;;;0.20;0.20;;;;;;;13.81;64.59;94278.16;4270709;33;20222;-63
2023/10/29 09:20:08;;;;;;;0.57;0.20;;;;;;;13.85;64.39;94271.03;4303540;33;20244;-63
2023/10/29 09:22:34;;;;;;;0.13;0.13;;;;;;;13.88;64.85;94263.16;4301548;33;20190;-63
2023/10/29 09:25:01;;;;;;;0.30;0.30;;;;;;;13.91;63.78;94269.69;4309485;33;20194;-63
2023/10/29 09:27:29;;;;;;;0.00;0.00;;;;;;;13.89;65.22;94272.69;4298100;33;20313;-63
2023/10/29 09:29:54;;;;;;;0.47;0.47;;;;;;;13.82;65.25;94275.16;4285034;33;20184;-63
2023/10/29 09:32:22;;;;;;;0.20;0.20;;;;;;;13.83;65.47;94276.72;4293494;33;20251;-63
2023/10/29 09:34:54;;;;;;;1.13;1.03;;;;;;;13.81;65.71;94278.94;4301757;33;20305;-63
2023/10/29 09:37:22;;;;;;;0.30;0.30;;;;;;;13.84;65.67;94277.50;4326239;33;20181;-63
2023/10/29 09:39:50;;;;;;;1.30;0.40;;;;;;;13.90;64.13;94278.81;4312659;33;20201;-63
2023/10/29 09:42:18;;;;;;;0.10;0.10;;;;;;;13.94;62.62;94261.00;4298737;33;20189;-63
2023/10/29 09:44:50;;;;;;;0.10;0.10;;;;;;;14.01;62.73;94261.97;4277891;33;20198;-63
2023/10/29 09:47:20;;;;;;;0.20;0.20;;;;;;;14.04;63.50;94255.19;4298461;33;20252;-63
2023/10/29 09:49:46;;;;;;;1.30;0.50;;;;;;;14.13;63.41;94247.81;4323426;33;20169;-63
2023/10/29 09:52:18;;;;;;;0.00;0.00;;;;;;;14.20;62.95;94247.97;4315615;33;20277;-63
2023/10/29 09:54:46;;;;;;;0.33;0.33;;;;;;;14.31;61.79;94242.94;4287201;33;20219;-63
2023/10/29 09:57:13;;;;;;;0.33;0.33;;;;;;;14.39;61.57;94250.75;4288632;33;20190;-63
2023/10/29 09:59:42;;;;;;;0.20;0.20;;;;;;;14.46;61.81;94249.41;4293998;33;20217;-63
2023/10/29 10:02:10;;;;;;;0.30;0.30;;;;;;;14.45;61.60;94248.66;4290931;33;20280;-63
2023/10/29 10:04:39;;;;;;;1.70;0.53;;;;;;;14.52;61.87;94253.37;4304829;33;20214;-63
2023/10/29 10:07:06;;;;;;;0.00;0.00;;;;;;;14.58;60.62;94257.34;4272963;33;20191;-63
2023/10/29 10:09:54;;;;;;;2.17;0.57;;;;;;;14.70;59.88;94254.59;4289398;33;20198;-63
2023/10/29 10:12:21;;;;;;;0.37;0.37;;;;;;;14.74;60.20;94260.81;4317504;33;20193;-63
2023/10/29 10:14:48;;;;;;;0.03;0.03;;;;;;;14.85;59.01;94247.69;4310534;33;20261;-63
2023/10/29 10:17:15;;;;;;;0.30;0.30;;;;;;;14.94;58.45;94249.06;4272187;33;20182;-63
2023/10/29 10:19:42;;;;;;;0.10;0.10;;;;;;;15.03;59.38;94252.31;4303419;33;20201;-62
2023/10/29 10:22:07;;;;;;;0.10;0.10;;;;;;;15.06;59.24;94253.50;4299966;33;20257;-63
2023/10/29 10:24:43;;;;;;;0.20;0.20;;;;;;;15.10;58.42;94247.13;4303104;33;20186;-63
2023/10/29 10:27:11;;;;;;;1.13;0.30;;;;;;;15.11;58.78;94237.22;4298443;33;20181;-62
2023/10/29 10:29:37;;;;;;;0.40;0.40;;;;;;;15.22;57.53;94245.47;4308161;33;20185;-63
2023/10/29 10:32:09;;;;;;;0.00;0.00;;;;;;;15.30;56.77;94239.94;4312751;33;20225;-63
2023/10/29 10:34:38;;;;;;;0.10;0.10;;;;;;;15.38;56.48;94241.63;4296509;33;20195;-63
2023/10/29 10:37:04;;;;;;;0.23;0.23;;;;;;;15.44;56.13;94242.91;4295264;33;20205;-63
2023/10/29 10:39:33;;;;;;;0.10;0.10;;;;;;;15.47;56.49;94246.78;4314113;33;20196;-63
2023/10/29 10:42:02;;;;;;;0.17;0.17;;;;;;;15.58;55.45;94242.47;4293499;33;20205;-62
2023/10/29 10:44:30;;;;;;;0.00;0.00;;;;;;;15.69;54.93;94240.00;4295917;33;20174;-62
2023/10/29 10:46:59;;;;;;;0.20;0.20;;;;;;;15.74;56.19;94242.41;4295864;33;20209;-63
2023/10/29 10:49:26;;;;;;;0.40;0.40;;;;;;;15.77;55.33;94237.13;4279985;33;20212;-63
2023/10/29 10:51:55;;;;;;;0.20;0.20;;;;;;;15.78;56.14;94227.97;4277492;33;20262;-63
2023/10/29 10:54:24;;;;;;;0.10;0.10;;;;;;;15.89;54.09;94228.16;4294873;33;20190;-63
2023/10/29 10:56:52;;;;;;;0.13;0.13;;;;;;;15.97;55.87;94229.84;4299870;33;20182;-63
2023/10/29 10:59:20;;;;;;;0.00;0.00;;;;;;;16.11;54.58;94223.97;4322225;33;20193;-63
2023/10/29 11:01:46;;;;;;;0.37;0.37;;;;;;;16.15;53.99;94222.16;4288883;33;20188;-63
2023/10/29 11:04:14;;;;;;;0.10;0.10;;;;;;;16.13;53.91;94219.06;4301091;33;20198;-63
2023/10/29 11:06:43;;;;;;;0.23;0.23;;;;;;;16.22;52.82;94208.87;4304472;33;20181;-63
2023/10/29 11:09:12;;;;;;;0.00;0.00;;;;;;;16.28;52.81;94206.69;4286272;33;20237;-63
2023/10/29 11:11:54;;;;;;;0.37;0.37;;;;;;;16.36;53.82;94205.69;4252923;33;20265;-63
2023/10/29 11:14:26;;;;;;;0.37;0.37;;;;;;;16.41;53.11;94206.19;4319580;33;20200;-63
2023/10/29 11:16:59;;;;;;;0.30;0.30;;;;;;;16.41;52.59;94200.03;4315471;33;20186;-63
2023/10/29 11:19:49;;;;;;;0.73;0.50;;;;;;;16.57;51.27;94202.59;4301596;33;20212;-63
2023/10/29 11:22:29;;;;;;;0.00;0.00;;;;;;;16.52;51.32;94205.56;4302587;33;20186;-63
2023/10/29 11:25:15;;;;;;;0.10;0.10;;;;;;;16.58;50.55;94209.50;4281780;33;20174;-63
2023/10/29 11:27:47;;;;;;;0.00;0.00;;;;;;;16.58;50.79;94212.94;4300221;33;20190;-63
2023/10/29 11:30:22;;;;;;;0.10;0.10;;;;;;;16.61;51.56;94219.50;4299119;33;20236;-63
2023/10/29 11:33:12;;;;;;;0.13;0.13;;;;;;;16.58;50.76;94218.31;4295178;33;20327;-63
2023/10/29 11:35:38;;;;;;;0.00;0.00;;;;;;;16.66;50.19;94211.16;4277704;33;20254;-63
2023/10/29 11:38:26;;;;;;;0.20;0.20;;;;;;;16.65;51.45;94205.03;4303005;33;20190;-63